National Weather Service Raw Text Product

Displaying AFOS PIL: TAFMCW Received: 2018-04-17 09:07 UTC


648 
FTUS43 KDMX 170907 AAA
TAFMCW
TAF AMD
KMCW 170907Z 1709/1806 29008KT P6SM SKC
      TEMPO 1711/1713 5SM BR
     FM171300 35007KT P6SM SKC
     FM172000 06007KT P6SM SCT180
     FM180400 08009KT P6SM BKN060=